createdAt,value
2019-01-27T00:01:24.057Z,0.17
2019-01-27T00:03:55.704Z,0.15
2019-01-27T00:06:25.195Z,0.19
2019-01-27T00:09:21.903Z,0.18
2019-01-27T00:12:17.832Z,0.15
2019-01-27T00:17:24.079Z,0.39
2019-01-27T00:22:28.364Z,0.58
2019-01-27T00:24:58.413Z,0.44
2019-01-27T00:27:27.461Z,0.34
2019-01-27T00:30:00.413Z,0.27
2019-01-27T00:32:30.510Z,0.18
2019-01-27T00:37:35.784Z,0.28
2019-01-27T00:42:46.962Z,0.39
2019-01-27T00:45:18.046Z,0.38
2019-01-27T00:50:27.263Z,0.35
2019-01-27T00:52:56.345Z,0.30
2019-01-27T00:55:25.386Z,0.28
2019-01-27T00:58:16.019Z,0.27
2019-01-27T01:00:45.261Z,0.15
2019-01-27T01:03:15.348Z,0.08
2019-01-27T01:05:46.393Z,0.16
2019-01-27T01:08:15.434Z,0.14
2019-01-27T01:10:45.049Z,0.02
2019-01-27T01:13:14.107Z,-0.10
2019-01-27T01:15:43.163Z,-0.10
2019-01-27T01:20:48.936Z,-0.10
2019-01-27T01:25:55.680Z,-0.01
2019-01-27T01:28:39.142Z,0.01
2019-01-27T01:31:16.520Z,-0.18
2019-01-27T01:33:45.560Z,-0.31
2019-01-27T01:36:27.683Z,-0.32
2019-01-27T01:38:56.747Z,-0.26
2019-01-27T01:41:38.692Z,-0.23
2019-01-27T01:44:07.747Z,-0.26
2019-01-27T01:46:36.943Z,-0.29
2019-01-27T01:51:55.168Z,-0.24
2019-01-27T01:54:29.115Z,-0.19
2019-01-27T01:56:59.574Z,-0.05
2019-01-27T01:59:28.881Z,-0.13
2019-01-27T02:01:58.864Z,0.03
2019-01-27T02:04:29.926Z,-0.02
2019-01-27T02:06:59.866Z,-0.03
2019-01-27T02:12:11.616Z,-0.19
2019-01-27T02:14:40.710Z,-0.20
2019-01-27T02:17:09.912Z,-0.13
2019-01-27T02:19:49.810Z,-0.15
2019-01-27T02:22:19.419Z,-0.22
2019-01-27T02:24:48.615Z,-0.22
2019-01-27T02:27:17.657Z,-0.32
2019-01-27T02:29:59.061Z,-0.28
2019-01-27T02:32:28.279Z,-0.25
2019-01-27T02:35:09.213Z,-0.18
2019-01-27T02:37:38.266Z,-0.20
2019-01-27T02:40:08.052Z,-0.14
2019-01-27T02:45:14.294Z,-0.04
2019-01-27T02:47:56.070Z,-0.10
2019-01-27T02:50:25.167Z,-0.04
2019-01-27T02:52:58.829Z,0.16
2019-01-27T02:55:28.767Z,0.52
2019-01-27T02:57:59.801Z,0.93
2019-01-27T03:03:04.078Z,1.49
2019-01-27T03:05:40.630Z,1.46
2019-01-27T03:08:10.337Z,1.19
2019-01-27T03:14:18.881Z,0.85
2019-01-27T03:16:47.916Z,0.82
2019-01-27T03:19:21.551Z,0.74
2019-01-27T03:21:50.610Z,0.68
2019-01-27T03:24:30.498Z,0.73
2019-01-27T03:26:59.984Z,0.98
2019-01-27T03:29:41.727Z,0.98
2019-01-27T03:32:38.306Z,0.91
2019-01-27T03:37:44.688Z,0.58
2019-01-27T03:42:49.442Z,1.02
2019-01-27T03:45:20.294Z,1.13
2019-01-27T03:47:49.331Z,1.22
2019-01-27T03:52:54.463Z,1.32
2019-01-27T03:55:40.983Z,1.40
2019-01-27T04:00:51.022Z,1.20
2019-01-27T04:03:27.792Z,0.84
2019-01-27T04:05:57.257Z,0.86
2019-01-27T04:11:12.204Z,1.52
2019-01-27T04:13:41.792Z,1.66
2019-01-27T04:16:18.963Z,1.98
2019-01-27T04:18:49.513Z,2.11
2019-01-27T04:21:39.659Z,2.13
2019-01-27T04:24:15.942Z,2.27
2019-01-27T04:26:45.173Z,2.29
2019-01-27T04:29:16.252Z,2.19
2019-01-27T04:31:45.287Z,2.07
2019-01-27T04:34:14.310Z,2.07
2019-01-27T04:36:43.682Z,2.42
2019-01-27T04:39:13.226Z,2.47
2019-01-27T04:41:42.287Z,2.48
2019-01-27T04:44:11.637Z,2.38
2019-01-27T04:46:40.712Z,2.22
2019-01-27T04:49:11.748Z,2.08
2019-01-27T04:51:41.436Z,2.04
2019-01-27T04:54:10.495Z,1.99
2019-01-27T04:56:41.427Z,1.97
2019-01-27T04:59:33.995Z,2.00
2019-01-27T05:02:08.057Z,2.02
2019-01-27T05:04:39.019Z,1.95
2019-01-27T05:07:08.104Z,1.91
2019-01-27T05:09:38.098Z,1.96
2019-01-27T05:12:07.782Z,2.00
2019-01-27T05:14:36.843Z,2.06
2019-01-27T05:17:06.825Z,2.15
2019-01-27T05:19:47.908Z,2.22
2019-01-27T05:22:16.940Z,2.28
2019-01-27T05:24:46.424Z,2.29
2019-01-27T05:27:15.476Z,2.31
2019-01-27T05:29:45.541Z,2.46
2019-01-27T05:32:15.023Z,2.66
2019-01-27T05:34:53.474Z,2.76
2019-01-27T05:37:22.764Z,2.78
2019-01-27T05:40:04.632Z,2.93
2019-01-27T05:42:33.667Z,2.95
2019-01-27T05:45:04.631Z,3.06
2019-01-27T05:47:33.662Z,3.05
2019-01-27T05:50:05.177Z,3.07
2019-01-27T05:52:45.242Z,3.11
2019-01-27T05:55:17.173Z,3.19
2019-01-27T06:00:36.950Z,3.23
2019-01-27T06:03:07.161Z,3.16
2019-01-27T06:05:38.224Z,3.14
2019-01-27T06:08:12.720Z,3.08
2019-01-27T06:10:42.182Z,3.18
2019-01-27T06:13:11.225Z,3.18
2019-01-27T06:15:40.260Z,3.12
2019-01-27T06:18:09.299Z,3.04
2019-01-27T06:20:38.364Z,3.06
2019-01-27T06:23:13.606Z,3.08
2019-01-27T06:25:42.682Z,3.14
2019-01-27T06:28:15.483Z,3.14
2019-01-27T06:30:44.499Z,3.12
2019-01-27T06:33:29.948Z,3.09
2019-01-27T06:36:00.541Z,3.00
2019-01-27T06:38:30.649Z,3.02
2019-01-27T06:40:59.679Z,2.95
2019-01-27T06:43:28.717Z,2.97
2019-01-27T06:46:17.023Z,2.90
2019-01-27T06:48:46.479Z,2.86
2019-01-27T06:51:26.930Z,2.87
2019-01-27T06:54:05.934Z,2.89
2019-01-27T06:56:34.962Z,2.92
2019-01-27T06:59:16.675Z,2.95
2019-01-27T07:01:49.928Z,2.98
2019-01-27T07:04:29.867Z,2.96
2019-01-27T07:09:56.271Z,2.80
2019-01-27T07:15:53.005Z,2.68
2019-01-27T07:24:03.836Z,2.43
2019-01-27T07:26:48.471Z,2.46
2019-01-27T07:29:22.191Z,2.37
2019-01-27T07:34:59.609Z,2.41
2019-01-27T07:37:44.612Z,2.34
2019-01-27T07:40:13.646Z,2.17
2019-01-27T07:42:49.147Z,2.12
2019-01-27T07:48:30.099Z,2.02
2019-01-27T07:50:59.411Z,2.02
2019-01-27T07:53:30.242Z,1.96
2019-01-27T07:56:13.113Z,1.91
2019-01-27T08:01:20.222Z,1.76
2019-01-27T08:03:52.158Z,1.75
2019-01-27T08:06:24.017Z,1.70
2019-01-27T08:11:58.806Z,1.78
2019-01-27T08:14:32.802Z,1.79
2019-01-27T08:17:20.243Z,1.81
2019-01-27T08:20:01.959Z,1.86
2019-01-27T08:22:36.016Z,2.04
2019-01-27T08:30:43.123Z,2.60
2019-01-27T08:36:44.448Z,3.12
2019-01-27T08:42:01.621Z,4.17
2019-01-27T08:44:39.874Z,4.25
2019-01-27T08:47:26.354Z,4.41
2019-01-27T08:49:55.603Z,4.43
2019-01-27T08:52:25.359Z,4.39
2019-01-27T08:55:04.217Z,4.40
2019-01-27T08:57:35.226Z,4.27
2019-01-27T09:08:12.351Z,4.54
2019-01-27T09:10:42.162Z,4.51
2019-01-27T09:15:46.894Z,4.71
2019-01-27T09:18:21.698Z,4.81
2019-01-27T09:20:52.045Z,4.92
2019-01-27T09:23:34.515Z,5.01
2019-01-27T09:26:15.757Z,5.25
2019-01-27T09:28:48.094Z,5.31
2019-01-27T09:31:17.716Z,5.35
2019-01-27T09:36:38.453Z,5.47
2019-01-27T09:39:13.467Z,5.44
2019-01-27T09:41:46.660Z,5.45
2019-01-27T09:44:26.871Z,5.61
2019-01-27T09:47:15.234Z,5.55
2019-01-27T09:49:44.385Z,5.65
2019-01-27T09:52:18.880Z,5.59
2019-01-27T09:54:50.389Z,5.37
2019-01-27T10:00:08.639Z,4.97
2019-01-27T10:05:34.959Z,4.65
2019-01-27T10:12:11.883Z,4.45
2019-01-27T10:14:57.913Z,4.55
2019-01-27T10:20:26.814Z,4.98
2019-01-27T10:22:57.718Z,4.83
2019-01-27T10:25:32.701Z,4.90
2019-01-27T10:28:10.830Z,4.85
2019-01-27T10:30:40.369Z,5.09
2019-01-27T10:33:14.858Z,5.07
2019-01-27T10:38:54.543Z,5.46
2019-01-27T10:41:23.823Z,5.51
2019-01-27T10:44:04.206Z,5.41
2019-01-27T10:49:10.018Z,5.57
2019-01-27T10:51:40.468Z,5.87
2019-01-27T10:54:18.898Z,6.00
2019-01-27T10:56:51.869Z,6.16
2019-01-27T10:59:29.487Z,6.13
2019-01-27T11:05:02.832Z,6.38
2019-01-27T11:07:44.552Z,6.47
2019-01-27T11:10:25.493Z,6.42
2019-01-27T11:13:08.891Z,6.52
2019-01-27T11:15:58.393Z,6.22
2019-01-27T11:21:30.054Z,5.99
2019-01-27T11:26:49.733Z,6.15
2019-01-27T11:29:34.066Z,5.84
2019-01-27T11:32:08.535Z,5.71
2019-01-27T11:34:52.881Z,5.84
2019-01-27T11:37:22.785Z,5.90
2019-01-27T11:39:55.556Z,5.74
2019-01-27T11:45:05.812Z,5.75
2019-01-27T11:47:36.767Z,5.97
2019-01-27T11:50:07.472Z,5.85
2019-01-27T11:52:36.534Z,5.83
2019-01-27T11:55:07.262Z,5.79
2019-01-27T11:57:38.221Z,5.83
2019-01-27T12:00:10.798Z,5.95
2019-01-27T12:02:46.375Z,6.23
2019-01-27T12:05:08.910Z,6.54
2019-01-27T12:07:38.503Z,6.47
2019-01-27T12:10:09.160Z,6.38
2019-01-27T12:12:38.210Z,6.85
2019-01-27T12:15:11.463Z,6.70
2019-01-27T12:17:40.721Z,6.77
2019-01-27T12:20:10.666Z,6.90
2019-01-27T12:22:39.758Z,7.18
2019-01-27T12:27:46.783Z,7.16
2019-01-27T12:30:17.799Z,7.18
2019-01-27T12:32:46.827Z,7.16
2019-01-27T12:35:16.821Z,6.96
2019-01-27T12:37:45.847Z,6.95
2019-01-27T12:40:22.486Z,7.03
2019-01-27T12:42:51.681Z,7.08
2019-01-27T12:45:20.728Z,6.84
2019-01-27T12:47:50.348Z,6.90
2019-01-27T12:52:55.187Z,6.98
2019-01-27T12:55:26.265Z,7.14
2019-01-27T12:57:55.347Z,7.19
2019-01-27T13:00:33.655Z,7.14
2019-01-27T13:03:02.701Z,7.11
2019-01-27T13:05:31.773Z,7.03
2019-01-27T13:08:02.750Z,7.14
2019-01-27T13:10:45.291Z,7.13
2019-01-27T13:16:01.013Z,7.14
2019-01-27T13:21:05.950Z,7.39
2019-01-27T13:23:38.472Z,7.42
2019-01-27T13:26:08.977Z,7.36
2019-01-27T13:31:16.240Z,7.17
2019-01-27T13:33:47.278Z,7.20
2019-01-27T13:36:16.469Z,7.26
2019-01-27T13:38:51.055Z,7.28
2019-01-27T13:43:51.270Z,7.15
2019-01-27T13:48:56.547Z,7.42
2019-01-27T13:51:27.526Z,7.51
2019-01-27T13:53:56.563Z,7.34
2019-01-27T13:56:26.518Z,7.84
2019-01-27T13:58:55.897Z,7.83
2019-01-27T14:01:24.968Z,7.46
2019-01-27T14:03:53.994Z,7.15
2019-01-27T14:06:23.038Z,7.22
2019-01-27T14:08:55.563Z,7.09
2019-01-27T14:11:27.440Z,6.91
2019-01-27T14:14:04.171Z,6.67
2019-01-27T14:19:17.974Z,6.37
2019-01-27T14:24:24.065Z,6.37
2019-01-27T14:26:53.260Z,6.00
2019-01-27T14:29:22.317Z,5.92
2019-01-27T14:31:52.821Z,5.78
2019-01-27T14:34:21.984Z,5.72
2019-01-27T14:36:51.050Z,5.70
2019-01-27T14:39:20.107Z,5.64
2019-01-27T14:41:49.154Z,5.59
2019-01-27T14:44:23.105Z,5.57
2019-01-27T14:46:52.277Z,5.54
2019-01-27T14:49:22.206Z,5.44
2019-01-27T14:51:57.000Z,5.53
2019-01-27T14:54:29.656Z,5.52
2019-01-27T14:57:07.990Z,5.53
2019-01-27T15:02:21.610Z,5.46
2019-01-27T15:05:03.161Z,5.56
2019-01-27T15:07:39.123Z,5.42
2019-01-27T15:10:22.090Z,5.47
2019-01-27T15:13:02.011Z,5.45
2019-01-27T15:15:40.505Z,5.43
2019-01-27T15:18:13.853Z,5.40
2019-01-27T15:20:53.349Z,5.39
2019-01-27T15:23:26.296Z,5.32
2019-01-27T15:26:00.453Z,5.37
2019-01-27T15:28:33.196Z,5.30
2019-01-27T15:31:08.848Z,5.36
2019-01-27T15:36:21.613Z,5.37
2019-01-27T15:38:55.119Z,5.27
2019-01-27T15:41:28.659Z,5.20
2019-01-27T15:46:42.253Z,5.10
2019-01-27T15:51:54.893Z,5.18
2019-01-27T15:54:28.162Z,5.13
2019-01-27T15:57:14.751Z,5.16
2019-01-27T16:00:14.123Z,5.29
2019-01-27T16:03:04.253Z,5.35
2019-01-27T16:05:53.190Z,5.22
2019-01-27T16:08:36.632Z,5.24
2019-01-27T16:16:35.861Z,5.44
2019-01-27T16:19:16.962Z,5.13
2019-01-27T16:22:03.874Z,5.14
2019-01-27T16:27:18.636Z,5.34
2019-01-27T16:30:02.663Z,5.47
2019-01-27T16:35:15.188Z,5.28
2019-01-27T16:37:48.856Z,5.38
2019-01-27T16:40:33.089Z,5.21
2019-01-27T16:43:29.467Z,5.27
2019-01-27T16:46:02.734Z,5.31
2019-01-27T16:48:32.295Z,5.21
2019-01-27T16:51:08.327Z,5.05
2019-01-27T16:56:13.244Z,4.96
2019-01-27T16:58:42.270Z,4.97
2019-01-27T17:03:47.456Z,4.80
2019-01-27T17:06:16.516Z,4.83
2019-01-27T17:08:45.568Z,4.79
2019-01-27T17:13:50.790Z,4.68
2019-01-27T17:16:19.943Z,4.76
2019-01-27T17:18:49.055Z,4.84
2019-01-27T17:21:18.084Z,4.86
2019-01-27T17:23:47.128Z,4.80
2019-01-27T17:26:20.295Z,4.81
2019-01-27T17:28:49.459Z,4.86
2019-01-27T17:31:18.553Z,4.85
2019-01-27T17:33:48.043Z,4.89
2019-01-27T17:36:20.110Z,4.92
2019-01-27T17:38:49.836Z,4.87
2019-01-27T17:41:22.923Z,4.90
2019-01-27T17:43:51.980Z,5.02
2019-01-27T17:46:21.486Z,5.00
2019-01-27T17:48:50.535Z,5.01
2019-01-27T17:51:27.234Z,4.94
2019-01-27T17:53:56.317Z,4.90
2019-01-27T17:56:25.370Z,4.87
2019-01-27T17:59:11.250Z,4.90
2019-01-27T18:01:39.525Z,4.90
2019-01-27T18:04:14.377Z,4.92
2019-01-27T18:06:44.187Z,4.96
2019-01-27T18:09:15.787Z,5.02
2019-01-27T18:11:44.825Z,4.95
2019-01-27T18:14:13.869Z,4.93
2019-01-27T18:16:43.187Z,4.75
2019-01-27T18:19:12.764Z,4.87
2019-01-27T18:21:48.636Z,4.75
2019-01-27T18:24:18.192Z,4.61
2019-01-27T18:26:47.211Z,4.53
2019-01-27T18:29:16.260Z,4.47
2019-01-27T18:31:46.056Z,4.43
2019-01-27T18:34:15.140Z,4.43
2019-01-27T18:36:44.241Z,4.52
2019-01-27T18:41:49.058Z,4.41
2019-01-27T18:44:18.120Z,4.45
2019-01-27T18:47:04.055Z,4.46
2019-01-27T18:52:09.307Z,4.19
2019-01-27T18:54:42.010Z,4.24
2019-01-27T18:57:11.024Z,4.18
2019-01-27T18:59:42.374Z,3.93
2019-01-27T19:02:13.166Z,4.13
2019-01-27T19:04:52.302Z,3.95
2019-01-27T19:07:21.415Z,3.78
2019-01-27T19:10:06.304Z,3.79
2019-01-27T19:12:46.660Z,3.89
2019-01-27T19:18:23.853Z,3.88
2019-01-27T19:20:56.174Z,3.81
2019-01-27T19:23:31.136Z,3.82
2019-01-27T19:26:18.590Z,3.87
2019-01-27T19:31:45.812Z,3.93
2019-01-27T19:40:07.602Z,3.77
2019-01-27T19:42:39.958Z,3.66
2019-01-27T19:45:09.979Z,3.54
2019-01-27T19:47:39.039Z,3.49
2019-01-27T19:50:15.968Z,3.45
2019-01-27T19:55:45.485Z,3.59
2019-01-27T19:58:22.351Z,3.69
2019-01-27T20:00:54.183Z,3.78
2019-01-27T20:03:33.065Z,3.83
2019-01-27T20:06:25.688Z,3.89
2019-01-27T20:09:02.296Z,3.89
2019-01-27T20:17:05.957Z,3.90
2019-01-27T20:19:45.788Z,3.34
2019-01-27T20:25:15.250Z,3.34
2019-01-27T20:27:44.607Z,3.21
2019-01-27T20:30:36.416Z,3.01
2019-01-27T20:38:26.907Z,2.74
2019-01-27T20:41:04.219Z,2.64
2019-01-27T20:43:37.539Z,2.59
2019-01-27T20:48:58.735Z,2.65
2019-01-27T20:51:30.792Z,2.73
2019-01-27T20:54:10.596Z,2.77
2019-01-27T20:56:40.583Z,2.78
2019-01-27T20:59:22.372Z,2.79
2019-01-27T21:02:06.284Z,2.80
2019-01-27T21:04:36.278Z,2.80
2019-01-27T21:07:28.342Z,2.75
2019-01-27T21:10:36.081Z,2.65
2019-01-27T21:13:44.558Z,2.61
2019-01-27T21:16:41.613Z,2.69
2019-01-27T21:19:19.638Z,2.80
2019-01-27T21:21:49.418Z,2.82
2019-01-27T21:24:23.220Z,2.96
2019-01-27T21:26:54.287Z,3.00
2019-01-27T21:29:28.982Z,3.01
2019-01-27T21:31:58.402Z,2.91
2019-01-27T21:34:37.765Z,3.00
2019-01-27T21:37:10.743Z,3.28
2019-01-27T21:39:40.543Z,3.19
2019-01-27T21:42:12.911Z,3.15
2019-01-27T21:44:41.980Z,3.14
2019-01-27T21:47:32.685Z,3.28
2019-01-27T21:52:39.506Z,3.46
2019-01-27T21:55:10.775Z,3.53
2019-01-27T21:57:51.432Z,3.61
2019-01-27T22:00:32.786Z,3.68
2019-01-27T22:03:07.689Z,3.64
2019-01-27T22:05:48.019Z,3.71
2019-01-27T22:08:32.663Z,3.68
2019-01-27T22:11:37.572Z,3.64
2019-01-27T22:14:37.398Z,3.70
2019-01-27T22:19:56.720Z,3.72
2019-01-27T22:22:29.963Z,3.76
2019-01-27T22:25:18.295Z,3.68
2019-01-27T22:27:48.146Z,3.72
2019-01-27T22:30:26.423Z,3.72
2019-01-27T22:33:09.646Z,3.84
2019-01-27T22:35:41.682Z,3.88
2019-01-27T22:38:31.624Z,3.83
2019-01-27T22:41:28.898Z,3.81
2019-01-27T22:46:42.803Z,3.76
2019-01-27T22:49:20.963Z,3.78
2019-01-27T22:52:07.262Z,3.78
2019-01-27T22:55:02.953Z,3.77
2019-01-27T22:57:48.438Z,3.72
2019-01-27T23:00:26.527Z,3.61
2019-01-27T23:03:02.675Z,3.59
2019-01-27T23:05:52.429Z,3.61
2019-01-27T23:08:23.304Z,3.58
2019-01-27T23:11:16.409Z,3.53
2019-01-27T23:14:06.138Z,3.61
2019-01-27T23:19:18.474Z,3.59
2019-01-27T23:21:48.574Z,3.55
2019-01-27T23:27:09.896Z,3.48
2019-01-27T23:29:39.044Z,3.46
2019-01-27T23:32:14.202Z,3.46
2019-01-27T23:37:19.373Z,3.42
2019-01-27T23:39:48.501Z,3.36
2019-01-27T23:42:17.645Z,3.33
2019-01-27T23:45:11.711Z,3.19
2019-01-27T23:47:40.787Z,3.10
2019-01-27T23:50:11.883Z,3.05
2019-01-27T23:52:40.911Z,3.04
2019-01-27T23:55:09.951Z,3.04
2019-01-27T23:57:42.951Z,3.00
